Byromville, Georgia
Current Conditions -  °F | °C
As of 1:55 AM on Sunday 21 Dec 2014 (Local Time) from KACJ Reporting Station
Overcast Overcast  
Wind Chill: 11°   Ceiling: 700
Heat Index: 11°   Visibility: 10mi
Dew Point: 11°   Wind: 5mph
Humidity: 100%   Direction: 70°ENE
Pressure: 30.18"   Gusts: NA
Location:  32.2°N, 83.91°W
Report Text: KACJ 210655Z AUTO 07004KT 10SM OVC007 11/11 A3018 RMK AO2
Loading
Personal Weather Stations






























Interactive Weather Map New forecast layout! Learn more

10-Day Weather Forecast

Advertisements
Track Severe Weather on mobile